Terminal Aerodrome Forecast
Issued by NWS

Home | Current Version | Previous Version | Text Only | Print | Product List | Glossary Off
Versions: 1 2 3 4 5 6 7 8 9 10 11 12 13 14

475
FTUS43 KIWX 240838 AAB
TAFSBN
TAF AMD
KSBN 240838Z 2409/2506 25005KT 5SM SHRA SCT006 BKN021 OVC080
     FM241000 15004KT P6SM BKN100
     FM241300 21010KT P6SM BKN250=

USA.gov is the U.S. government's official web portal to all federal, state and local government web resources and services.